Time;durP1;ratioP1;P1;durP2;ratioP2;P2;SDS_P1;SDS_P2;PMS_P1;PMS_P2;Temp;Humidity;BMP_temperature;BMP_pressure;BME280_temperature;BME280_humidity;BME280_pressure;Samples;Min_cycle;Max_cycle;Signal;HPM_P1;HPM_P2
2022/09/05 00:01:40;;;;;;;5.90;5.13;;;;;;;23.17;54.81;101953.81;5072004;28;20405;-77
2022/09/05 00:04:16;;;;;;;5.55;4.88;;;;;;;23.18;54.77;101957.28;5071883;28;20040;-78
2022/09/05 00:06:57;;;;;;;6.43;5.15;;;;;;;23.18;54.85;101954.66;5070038;28;20494;-77
2022/09/05 00:12:01;;;;;;;6.57;5.03;;;;;;;23.17;54.64;101961.69;5071063;28;20821;-77
2022/09/05 00:17:20;;;;;;;5.20;4.60;;;;;;;23.16;54.70;101961.69;5070259;28;21242;-78
2022/09/05 00:20:10;;;;;;;6.90;4.90;;;;;;;23.16;54.45;101959.94;5069976;28;20057;-78
2022/09/05 00:22:57;;;;;;;6.20;4.80;;;;;;;23.17;54.66;101952.94;5069692;28;20624;-78
2022/09/05 00:31:20;;;;;;;5.25;4.40;;;;;;;23.13;54.26;101948.63;5070583;28;20161;-77
2022/09/05 00:34:04;;;;;;;4.95;4.45;;;;;;;23.13;54.02;101948.63;5068902;28;20082;-78
2022/09/05 00:39:02;;;;;;;4.80;4.35;;;;;;;23.12;54.05;101946.88;5070087;28;20041;-77
2022/09/05 00:41:28;;;;;;;4.72;4.00;;;;;;;23.11;53.75;101946.03;5072123;28;20513;-77
2022/09/05 00:43:55;;;;;;;5.00;4.25;;;;;;;23.11;53.83;101943.41;5050918;28;20052;-78
2022/09/05 00:46:27;;;;;;;4.60;4.10;;;;;;;23.09;53.47;101937.31;5054005;28;20529;-77
2022/09/05 00:49:21;;;;;;;5.10;4.20;;;;;;;23.10;53.21;101938.16;5068336;28;20495;-77
2022/09/05 00:51:59;;;;;;;5.50;3.90;;;;;;;23.11;53.16;101937.28;5069676;28;20056;-77
2022/09/05 00:57:21;;;;;;;4.40;3.78;;;;;;;23.11;53.31;101934.66;5069257;28;20451;-77
2022/09/05 01:00:06;;;;;;;5.25;3.85;;;;;;;23.10;53.25;101935.53;5068000;28;20090;-77
2022/09/05 01:03:01;;;;;;;6.32;4.32;;;;;;;23.11;53.39;101939.91;5071236;28;20117;-77
2022/09/05 01:05:31;;;;;;;4.85;3.78;;;;;;;23.09;53.34;101932.06;5068757;28;20090;-77
2022/09/05 01:08:19;;;;;;;4.90;3.50;;;;;;;23.10;53.19;101935.53;5068088;28;21957;-77
2022/09/05 01:11:21;;;;;;;4.05;3.60;;;;;;;23.10;53.17;101938.16;5068683;28;20136;-77
2022/09/05 01:14:08;;;;;;;5.15;3.70;;;;;;;23.10;53.08;101933.75;5069132;28;20135;-77
2022/09/05 01:16:52;;;;;;;4.35;3.38;;;;;;;23.09;53.24;101934.69;5070250;28;20520;-77
2022/09/05 01:19:27;;;;;;;4.25;3.58;;;;;;;23.08;53.43;101935.59;5070439;28;20055;-77
2022/09/05 01:22:26;;;;;;;4.97;3.70;;;;;;;23.09;53.19;101925.94;5067533;28;20065;-77
2022/09/05 01:25:13;;;;;;;4.25;3.67;;;;;;;23.08;53.23;101930.31;5067336;28;20058;-77
2022/09/05 01:27:48;;;;;;;4.10;3.63;;;;;;;23.08;52.76;101937.31;5031223;28;1081424;-77
2022/09/05 01:30:18;;;;;;;4.30;3.50;;;;;;;23.05;53.71;101932.97;5071229;28;20048;-77
2022/09/05 01:32:53;;;;;;;5.10;3.58;;;;;;;23.07;52.37;101927.72;5068951;28;20040;-77
2022/09/05 01:38:21;;;;;;;6.13;3.03;;;;;;;23.05;52.53;101932.97;5068861;28;20044;-77
2022/09/05 01:40:54;;;;;;;4.65;3.25;;;;;;;23.06;53.54;101937.34;5068794;28;20059;-77
2022/09/05 01:46:28;;;;;;;4.65;3.33;;;;;;;23.05;52.53;101943.47;5068521;28;20044;-77
2022/09/05 01:49:03;;;;;;;4.75;3.22;;;;;;;23.05;52.30;101940.84;5068709;28;20086;-77
2022/09/05 01:54:16;;;;;;;5.78;3.22;;;;;;;23.05;52.21;101938.22;5067815;28;20675;-77
2022/09/05 01:56:55;;;;;;;5.45;3.17;;;;;;;23.06;52.32;101937.34;5040399;28;20552;-77
2022/09/05 02:02:20;;;;;;;3.80;3.28;;;;;;;23.05;52.96;101935.59;5068304;28;20048;-77
2022/09/05 02:05:10;;;;;;;3.75;3.20;;;;;;;23.05;51.99;101934.75;5067127;28;20143;-77
2022/09/05 02:08:06;;;;;;;4.70;2.97;;;;;;;23.04;53.23;101935.63;5068090;28;20391;-77
2022/09/05 02:11:03;;;;;;;3.10;2.63;;;;;;;23.04;51.91;101927.75;5069297;28;20125;-77
2022/09/05 02:16:01;;;;;;;3.70;2.80;;;;;;;23.04;51.92;101933.88;5068117;28;21184;-77
2022/09/05 02:21:00;;;;;;;4.45;2.90;;;;;;;23.02;51.87;101934.78;5068174;28;20048;-77
2022/09/05 02:26:03;;;;;;;5.50;3.00;;;;;;;23.01;51.74;101926.03;5068010;28;20045;-77
2022/09/05 02:31:07;;;;;;;3.35;2.70;;;;;;;23.01;52.00;101939.16;5068354;28;20056;-77
2022/09/05 02:33:44;;;;;;;4.07;2.65;;;;;;;23.01;52.08;101939.16;5069194;28;20078;-77
2022/09/05 02:39:05;;;;;;;4.03;2.80;;;;;;;23.02;51.17;101935.66;5067539;28;21221;-77
2022/09/05 02:44:05;;;;;;;2.78;2.35;;;;;;;23.02;51.28;101940.91;5067948;28;20106;-77
2022/09/05 02:49:13;;;;;;;3.10;2.60;;;;;;;22.97;52.03;101935.72;5067865;28;20048;-77
2022/09/05 02:51:51;;;;;;;2.75;2.47;;;;;;;23.02;51.50;101940.91;5068050;28;20055;-77
2022/09/05 02:54:22;;;;;;;4.43;2.70;;;;;;;23.02;50.94;101935.66;5069538;28;20048;-77
2022/09/05 02:57:15;;;;;;;3.55;2.50;;;;;;;23.02;51.10;101935.66;5066061;28;20094;-77
2022/09/05 02:59:49;;;;;;;4.18;2.80;;;;;;;23.03;50.90;101940.00;5066093;28;20082;-77
2022/09/05 03:02:19;;;;;;;3.88;2.70;;;;;;;23.02;51.17;101937.41;5069332;28;20445;-77
2022/09/05 03:05:30;;;;;;;2.70;2.30;;;;;;;23.03;51.77;101937.38;5065919;28;20058;-77
2022/09/05 03:08:22;;;;;;;4.63;2.58;;;;;;;23.00;51.58;101926.94;5049091;28;20044;-77
2022/09/05 03:11:12;;;;;;;3.90;2.50;;;;;;;23.02;50.63;101933.03;5066261;28;20191;-77
2022/09/05 03:14:17;;;;;;;4.15;2.55;;;;;;;22.99;50.96;101935.66;5067403;28;20053;-77
2022/09/05 03:17:27;;;;;;;4.00;2.58;;;;;;;23.00;50.74;101927.81;5065004;28;20064;-77
2022/09/05 03:20:25;;;;;;;3.85;2.28;;;;;;;22.99;50.57;101926.06;5067002;28;20522;-77
2022/09/05 03:23:07;;;;;;;3.38;2.42;;;;;;;23.00;51.10;101925.19;5067362;28;20055;-77
2022/09/05 03:25:55;;;;;;;5.25;2.50;;;;;;;22.98;50.81;101928.69;5068629;28;20048;-77
2022/09/05 03:31:19;;;;;;;3.50;2.42;;;;;;;22.96;50.48;101926.06;5067382;28;20524;-77
2022/09/05 03:34:14;;;;;;;3.85;2.55;;;;;;;22.98;50.56;101926.06;5067332;28;20407;-77
2022/09/05 03:37:02;;;;;;;4.57;2.70;;;;;;;22.98;50.25;101926.06;5065511;28;20044;-77
2022/09/05 03:42:15;;;;;;;4.68;2.40;;;;;;;22.97;50.54;101927.84;5066762;28;20498;-77
2022/09/05 03:45:03;;;;;;;4.47;2.33;;;;;;;22.97;50.23;101929.56;5065222;28;20568;-77
2022/09/05 03:50:16;;;;;;;4.50;2.63;;;;;;;22.96;50.20;101923.44;5067024;28;20072;-77
2022/09/05 03:53:03;;;;;;;3.08;2.40;;;;;;;22.97;50.09;101921.69;5067093;28;20048;-77
2022/09/05 03:58:27;;;;;;;4.47;2.40;;;;;;;22.97;50.21;101926.94;5067081;28;20145;-77
2022/09/05 04:01:06;;;;;;;3.67;2.45;;;;;;;22.98;50.01;101928.69;5048692;28;21230;-77
2022/09/05 04:03:42;;;;;;;3.97;2.38;;;;;;;22.98;49.82;101932.19;5068356;28;20053;-77
2022/09/05 04:06:16;;;;;;;4.45;2.20;;;;;;;22.97;50.18;101924.31;5067514;28;20070;-77
2022/09/05 04:09:01;;;;;;;2.88;2.50;;;;;;;22.98;49.86;101924.31;5066438;28;20113;-77
2022/09/05 04:14:04;;;;;;;3.00;2.17;;;;;;;22.97;49.61;101933.09;5066755;28;21311;-77
2022/09/05 04:22:04;;;;;;;2.97;2.20;;;;;;;22.96;49.69;101933.09;5070090;28;21232;-77
2022/09/05 04:27:14;;;;;;;2.78;2.15;;;;;;;22.96;49.75;101931.31;5070482;28;20758;-77
2022/09/05 04:30:00;;;;;;;2.67;2.10;;;;;;;22.96;49.58;101928.69;5070078;28;20056;-77
2022/09/05 04:35:14;;;;;;;3.13;2.17;;;;;;;22.97;49.35;101926.94;5070025;28;20049;-77
2022/09/05 04:37:48;;;;;;;2.88;2.22;;;;;;;22.96;49.45;101919.97;5070352;28;20051;-77
2022/09/05 04:43:01;;;;;;;3.95;2.22;;;;;;;22.96;49.00;101923.44;5070057;28;20060;-77
2022/09/05 04:48:01;;;;;;;2.97;2.42;;;;;;;22.95;49.46;101927.00;5069574;28;20047;-77
2022/09/05 04:50:28;;;;;;;2.70;2.10;;;;;;;22.98;48.90;101920.81;5071623;28;20061;-77
2022/09/05 04:53:18;;;;;;;3.58;2.38;;;;;;;22.98;49.88;101926.06;5051958;28;21218;-77
2022/09/05 04:55:49;;;;;;;4.85;2.08;;;;;;;22.96;49.47;101925.22;5069569;28;20056;-76
2022/09/05 05:01:00;;;;;;;3.97;2.20;;;;;;;22.98;48.79;101924.31;5069884;28;20052;-76
2022/09/05 05:06:07;;;;;;;12.93;4.50;;;;;;;22.99;49.23;101928.69;5068370;28;20292;-78
2022/09/05 05:08:45;;;;;;;18.00;5.80;;;;;;;23.02;49.48;101933.03;5070803;28;20055;-78
2022/09/05 05:11:23;;;;;;;11.65;4.55;;;;;;;22.95;49.10;101931.34;5066953;28;20053;-77
2022/09/05 05:13:57;;;;;;;10.80;4.05;;;;;;;22.85;48.16;101927.13;5069244;28;20056;-75
2022/09/05 05:16:27;;;;;;;11.43;4.80;;;;;;;22.82;48.56;101925.44;5071395;28;20049;-75
2022/09/05 05:19:00;;;;;;;11.77;4.00;;;;;;;22.81;47.83;101931.56;5069361;28;20118;-76
2022/09/05 05:21:29;;;;;;;8.45;3.60;;;;;;;22.75;47.02;101929.88;5070060;28;20052;-76
2022/09/05 05:24:16;;;;;;;5.85;4.07;;;;;;;22.74;46.93;101925.53;5069007;28;20044;-76
2022/09/05 05:26:47;;;;;;;5.30;3.47;;;;;;;22.72;47.53;101935.19;5067591;28;20054;-77
2022/09/05 05:29:19;;;;;;;8.35;4.07;;;;;;;22.70;46.88;101938.72;5071533;28;20056;-76
2022/09/05 05:31:50;;;;;;;5.50;3.63;;;;;;;22.67;46.93;101937.00;5067709;28;20085;-76
2022/09/05 05:34:23;;;;;;;7.00;3.70;;;;;;;22.61;46.54;101947.56;5071088;28;20052;-76
2022/09/05 05:36:59;;;;;;;6.35;3.97;;;;;;;22.58;46.82;101945.88;5069064;28;20510;-75
2022/09/05 05:39:28;;;;;;;8.32;4.13;;;;;;;22.56;46.77;101954.66;5070959;28;20575;-75
2022/09/05 05:41:57;;;;;;;8.38;3.80;;;;;;;22.54;46.82;101952.03;5022410;28;1278041;-74
2022/09/05 05:46:59;;;;;;;;;;;;;;;22.55;46.86;101948.50;5069258;28;20926;-74
2022/09/05 05:52:15;;;;;;;9.43;4.40;;;;;;;22.53;46.76;101949.41;5068175;28;21116;-76
2022/09/05 05:55:05;;;;;;;10.43;4.03;;;;;;;22.52;46.94;101953.81;5068819;28;20483;-75
2022/09/05 06:00:17;;;;;;;10.02;4.82;;;;;;;22.55;46.83;101955.50;5068405;28;20047;-75
2022/09/05 06:03:11;;;;;;;6.53;4.10;;;;;;;22.59;46.39;101965.09;5068384;28;20060;-75
2022/09/05 06:05:58;;;;;;;9.52;4.25;;;;;;;22.63;46.93;101958.91;5068930;28;20048;-75
2022/09/05 06:11:06;;;;;;;7.95;4.45;;;;;;;22.70;46.48;101959.72;5068083;28;20513;-75
2022/09/05 06:13:43;;;;;;;8.10;3.63;;;;;;;22.80;46.49;101949.06;5069990;28;20131;-76
2022/09/05 06:16:30;;;;;;;7.65;3.38;;;;;;;22.93;46.52;101954.13;5068851;28;20098;-74
2022/09/05 06:19:20;;;;;;;10.07;3.60;;;;;;;22.98;46.40;101952.31;5066714;28;20052;-75
2022/09/05 06:22:20;;;;;;;4.93;3.28;;;;;;;23.07;46.43;101951.34;5067588;28;20137;-75
2022/09/05 06:25:22;;;;;;;6.65;3.90;;;;;;;23.11;46.25;101951.28;5068139;28;20086;-75
2022/09/05 06:28:05;;;;;;;5.00;3.20;;;;;;;23.19;46.24;101956.38;5066696;28;20076;-75
2022/09/05 06:33:08;;;;;;;8.10;3.50;;;;;;;23.30;46.87;101957.13;5067702;28;20048;-76
2022/09/05 06:36:25;;;;;;;4.18;2.92;;;;;;;23.26;46.70;101957.19;5068992;28;20040;-75
2022/09/05 06:39:04;;;;;;;5.50;2.85;;;;;;;23.25;46.88;101953.69;5047164;28;20137;-75
2022/09/05 06:44:21;;;;;;;5.13;3.10;;;;;;;23.29;47.18;101971.13;5067782;28;20159;-75
2022/09/05 06:46:51;;;;;;;5.97;3.15;;;;;;;23.26;47.18;101965.06;5067693;28;20048;-75
2022/09/05 06:52:26;;;;;;;5.43;2.85;;;;;;;23.25;47.17;101972.06;5067956;28;21207;-75
2022/09/05 06:55:10;;;;;;;6.55;2.90;;;;;;;23.26;46.90;101973.81;5067640;28;20044;-75
2022/09/05 06:57:35;;;;;;;4.13;2.75;;;;;;;23.27;46.84;101979.94;5068280;28;20052;-75
2022/09/05 07:03:19;;;;;;;4.72;2.85;;;;;;;23.28;46.97;101977.28;5067911;28;20078;-75
2022/09/05 07:05:54;;;;;;;4.97;3.00;;;;;;;23.30;47.44;101987.75;5068709;28;20434;-74
2022/09/05 07:11:23;;;;;;;4.50;2.58;;;;;;;23.35;47.16;101991.19;5069033;28;20229;-75
2022/09/05 07:14:14;;;;;;;4.10;2.47;;;;;;;23.41;47.48;101985.84;5065663;28;20048;-75
2022/09/05 07:16:49;;;;;;;4.88;2.70;;;;;;;23.43;47.36;101989.31;5066526;28;20129;-76
2022/09/05 07:19:29;;;;;;;3.33;2.50;;;;;;;23.46;46.96;101991.88;5069098;28;20140;-76
2022/09/05 07:22:18;;;;;;;4.13;2.60;;;;;;;23.46;47.29;101994.50;5066791;28;20048;-76
2022/09/05 07:24:46;;;;;;;3.00;2.20;;;;;;;23.49;47.26;101996.22;5067345;28;20375;-76
2022/09/05 07:27:26;;;;;;;3.60;2.67;;;;;;;23.51;47.21;102003.16;5067769;28;20048;-76
2022/09/05 07:29:57;;;;;;;3.97;2.60;;;;;;;23.53;47.38;101998.75;5066951;28;20061;-76
2022/09/05 07:32:23;;;;;;;5.28;2.50;;;;;;;23.56;47.20;102006.63;5068996;28;20049;-76
2022/09/05 07:34:50;;;;;;;3.53;2.22;;;;;;;23.57;46.95;102010.97;5065411;28;20059;-76
2022/09/05 07:37:22;;;;;;;4.13;2.45;;;;;;;23.58;47.15;102002.19;5022460;28;20522;-76
2022/09/05 07:39:57;;;;;;;5.60;2.42;;;;;;;23.60;47.36;102005.66;5064356;28;20040;-76
2022/09/05 07:45:05;;;;;;;4.82;2.60;;;;;;;23.64;46.93;102013.50;5067074;28;20521;-76
2022/09/05 07:50:03;;;;;;;3.70;2.40;;;;;;;23.63;47.34;102010.00;5066942;28;20468;-76
2022/09/05 07:55:00;;;;;;;3.72;2.28;;;;;;;23.62;47.52;102009.13;5070884;28;20182;-76
2022/09/05 08:00:18;;;;;;;3.15;2.08;;;;;;;23.64;47.49;101997.72;5070672;28;20107;-76
2022/09/05 08:02:44;;;;;;;4.00;2.30;;;;;;;23.64;47.20;102001.22;5068956;28;20401;-76
2022/09/05 08:05:13;;;;;;;3.35;2.30;;;;;;;23.64;47.48;101992.47;5073205;28;20123;-76
2022/09/05 08:07:43;;;;;;;3.60;2.20;;;;;;;23.62;47.25;101989.84;5070694;28;20076;-76
2022/09/05 08:10:20;;;;;;;3.00;2.05;;;;;;;23.62;47.57;101985.47;5071390;28;20049;-76
2022/09/05 08:12:54;;;;;;;3.55;2.20;;;;;;;23.63;47.25;101986.34;5069069;28;20048;-76
2022/09/05 08:15:23;;;;;;;3.55;2.55;;;;;;;23.64;47.63;101981.97;5071089;28;20052;-76
2022/09/05 08:18:13;;;;;;;4.50;2.17;;;;;;;23.67;47.18;101989.78;5068816;28;20044;-76
2022/09/05 08:20:46;;;;;;;3.13;2.30;;;;;;;23.67;47.27;101989.78;5070328;28;20059;-76
2022/09/05 08:23:32;;;;;;;2.33;1.80;;;;;;;23.67;47.24;102000.28;5072000;28;20056;-76
2022/09/05 08:26:07;;;;;;;3.40;1.90;;;;;;;23.67;47.51;102000.28;5068939;28;20490;-76
2022/09/05 08:28:54;;;;;;;3.63;2.20;;;;;;;23.68;47.53;102004.66;5071425;28;20052;-76
2022/09/05 08:34:00;;;;;;;4.72;2.00;;;;;;;23.68;47.17;102005.53;5070407;28;20056;-76
2022/09/05 08:38:59;;;;;;;3.05;2.20;;;;;;;23.69;46.91;102012.53;5070028;28;20053;-76
2022/09/05 08:44:11;;;;;;;3.72;2.00;;;;;;;23.67;47.19;102010.81;5069584;28;20086;-75
2022/09/05 08:47:01;;;;;;;5.70;1.80;;;;;;;23.68;46.99;102007.28;5070034;28;20064;-76
2022/09/05 08:49:32;;;;;;;2.97;1.92;;;;;;;23.69;46.99;102006.38;5070078;28;20103;-76
2022/09/05 08:52:07;;;;;;;2.35;1.98;;;;;;;23.69;46.97;102006.38;5069984;28;20053;-75
2022/09/05 08:54:43;;;;;;;2.60;1.98;;;;;;;23.69;47.24;102004.66;5071290;28;20056;-75
2022/09/05 08:57:17;;;;;;;3.60;1.95;;;;;;;23.68;47.48;102000.28;5070329;28;20509;-75
2022/09/05 09:00:02;;;;;;;2.78;1.90;;;;;;;23.69;47.45;101988.88;5069142;28;20060;-75
2022/09/05 09:08:19;;;;;;;2.33;1.70;;;;;;;23.71;47.12;101996.72;5069319;28;20047;-75
2022/09/05 09:11:22;;;;;;;2.63;1.73;;;;;;;23.71;47.12;101996.72;5067702;28;20100;-76
2022/09/05 09:13:55;;;;;;;2.97;1.83;;;;;;;23.70;47.41;101990.59;5069326;28;20045;-76
2022/09/05 09:18:56;;;;;;;3.72;2.08;;;;;;;23.71;47.04;101978.31;5069219;28;20049;-76
2022/09/05 09:21:27;;;;;;;3.85;1.80;;;;;;;23.71;47.01;101975.69;5070983;28;20067;-76
2022/09/05 09:27:02;;;;;;;2.42;1.70;;;;;;;23.70;47.17;101969.56;5069915;28;20044;-76
2022/09/05 09:32:20;;;;;;;2.85;1.90;;;;;;;23.72;47.32;101965.16;5069023;28;20812;-76
2022/09/05 09:35:01;;;;;;;2.13;1.67;;;;;;;23.71;47.09;101967.81;5067435;28;20052;-76
2022/09/05 09:37:29;;;;;;;2.08;1.77;;;;;;;23.70;47.25;101959.06;5069664;28;20059;-76
2022/09/05 09:40:03;;;;;;;3.17;1.70;;;;;;;23.72;47.10;101964.31;5068765;28;20057;-76
2022/09/05 09:45:08;;;;;;;2.15;1.60;;;;;;;23.71;47.38;101957.31;5069002;28;20068;-76
2022/09/05 09:48:11;;;;;;;3.72;1.90;;;;;;;23.72;47.58;101961.69;5070299;28;20072;-76
2022/09/05 09:51:01;;;;;;;3.15;1.70;;;;;;;23.71;47.52;101958.16;5066901;28;20110;-76
2022/09/05 09:53:28;;;;;;;2.00;1.63;;;;;;;23.71;47.51;101952.03;5070417;28;20064;-76
2022/09/05 10:00:19;;;;;;;2.15;1.73;;;;;;;23.71;47.48;101957.31;5091069;27;20402;-76
2022/09/05 10:03:07;;;;;;;3.75;1.90;;;;;;;23.72;47.66;101951.16;5063529;28;20152;-76
2022/09/05 10:11:12;;;;;;;2.17;1.70;;;;;;;23.72;47.33;101951.16;5084504;28;20086;-76
2022/09/05 10:16:25;;;;;;;2.03;1.50;;;;;;;23.71;47.54;101952.03;5084379;28;20041;-76
2022/09/05 10:18:59;;;;;;;2.85;1.70;;;;;;;23.72;47.42;101948.53;5084100;28;20098;-76
2022/09/05 10:21:33;;;;;;;2.53;1.80;;;;;;;23.72;46.72;101949.41;5086396;28;20102;-76
2022/09/05 10:24:36;;;;;;;3.33;1.58;;;;;;;23.72;46.96;101951.16;5084657;28;21323;-76
2022/09/05 10:27:12;;;;;;;2.65;1.80;;;;;;;23.73;47.51;101943.22;5084335;28;20154;-76
2022/09/05 10:29:39;;;;;;;2.50;1.80;;;;;;;23.73;47.24;101939.75;5068166;28;20044;-76
2022/09/05 10:32:09;;;;;;;1.90;1.50;;;;;;;23.73;47.11;101937.13;5066521;28;20063;-76
2022/09/05 10:37:10;;;;;;;1.85;1.40;;;;;;;23.74;47.30;101925.72;5075803;28;20044;-75
2022/09/05 10:42:14;;;;;;;1.85;1.52;;;;;;;23.74;47.29;101926.59;5084192;28;21652;-75
2022/09/05 10:44:54;;;;;;;2.50;1.70;;;;;;;23.74;46.91;101920.47;5085537;28;20056;-76
2022/09/05 10:47:29;;;;;;;2.25;1.70;;;;;;;23.74;47.01;101921.31;5084550;28;20060;-76
2022/09/05 10:50:10;;;;;;;2.40;1.65;;;;;;;23.74;47.03;101923.09;5065720;28;20502;-76
2022/09/05 10:55:20;;;;;;;1.65;1.40;;;;;;;23.75;46.99;101922.19;5083571;28;20060;-76
2022/09/05 10:57:58;;;;;;;3.97;1.88;;;;;;;23.75;46.92;101916.94;5083814;28;20498;-76
2022/09/05 11:03:07;;;;;;;2.92;1.80;;;;;;;23.75;47.01;101914.31;5083140;28;20052;-74
2022/09/05 11:05:37;;;;;;;4.38;1.60;;;;;;;23.76;47.21;101911.69;5084618;28;20048;-75
2022/09/05 11:08:25;;;;;;;2.38;1.40;;;;;;;23.77;46.78;101907.28;5082738;28;20056;-75
2022/09/05 11:10:59;;;;;;;2.13;1.50;;;;;;;23.77;47.13;101907.28;5073684;28;20055;-75
2022/09/05 11:16:15;;;;;;;1.75;1.33;;;;;;;23.78;47.14;101909.03;5069883;28;20056;-74
2022/09/05 11:18:44;;;;;;;1.55;1.27;;;;;;;23.79;46.66;101906.38;5070579;28;20376;-75
2022/09/05 11:21:21;;;;;;;2.83;1.70;;;;;;;23.79;46.57;101916.00;5071039;28;20048;-74
2022/09/05 11:23:53;;;;;;;2.88;1.40;;;;;;;23.80;46.85;101907.22;5051979;28;20036;-75
2022/09/05 11:29:20;;;;;;;2.08;1.40;;;;;;;23.81;46.36;101912.47;5069781;28;20707;-75
2022/09/05 11:32:17;;;;;;;2.70;1.55;;;;;;;23.80;47.00;101918.63;5051985;28;20133;-75
2022/09/05 11:34:51;;;;;;;1.60;1.50;;;;;;;23.82;46.38;101918.56;5052321;28;20084;-75
2022/09/05 11:37:27;;;;;;;2.20;1.25;;;;;;;23.82;46.88;101921.19;5052606;28;20048;-75
2022/09/05 11:39:55;;;;;;;2.35;1.63;;;;;;;23.83;46.39;101920.31;5051199;28;20116;-76
2022/09/05 11:42:33;;;;;;;3.85;1.42;;;;;;;23.83;46.29;101919.47;5053388;28;20052;-75
2022/09/05 11:45:05;;;;;;;2.15;1.35;;;;;;;23.84;45.92;101910.66;5069429;28;20534;-75
2022/09/05 11:53:09;;;;;;;2.42;1.40;;;;;;;23.85;46.17;101904.53;5069531;28;20060;-76
2022/09/05 11:58:16;;;;;;;4.97;1.70;;;;;;;23.85;46.31;101892.25;5069074;28;20045;-76
2022/09/05 12:01:04;;;;;;;3.05;1.45;;;;;;;23.85;46.32;101887.00;5052090;28;20052;-76
2022/09/05 12:06:25;;;;;;;3.40;1.50;;;;;;;23.86;46.05;101888.72;5067041;28;20731;-76
2022/09/05 12:09:09;;;;;;;3.25;1.52;;;;;;;23.88;46.30;101893.94;5051047;28;20053;-76
2022/09/05 12:14:12;;;;;;;1.73;1.30;;;;;;;23.87;46.17;101893.09;5068612;28;20453;-76
2022/09/05 12:19:15;;;;;;;2.33;1.40;;;;;;;23.90;45.92;101894.78;5068735;28;20538;-76
2022/09/05 12:22:06;;;;;;;2.03;1.30;;;;;;;23.90;45.96;101898.28;5069805;28;20408;-76
2022/09/05 12:27:14;;;;;;;1.60;1.10;;;;;;;23.91;45.62;101902.66;5052680;28;20049;-76
2022/09/05 12:29:45;;;;;;;2.00;1.30;;;;;;;23.92;45.12;101893.84;5070118;28;20099;-76
2022/09/05 12:32:24;;;;;;;3.75;1.42;;;;;;;23.93;45.64;101897.34;5067617;28;20060;-76
2022/09/05 12:34:56;;;;;;;2.50;1.40;;;;;;;23.92;45.62;101899.09;5050061;28;20052;-76
2022/09/05 12:37:21;;;;;;;2.58;1.50;;;;;;;23.93;46.11;101899.97;5052506;28;20052;-76
2022/09/05 12:39:54;;;;;;;1.98;1.30;;;;;;;23.93;45.69;101892.97;5050504;28;20521;-76
2022/09/05 12:42:39;;;;;;;1.98;1.20;;;;;;;23.95;45.27;101893.81;5068433;28;20490;-76
2022/09/05 12:45:22;;;;;;;2.72;1.40;;;;;;;23.96;45.59;101895.53;5068459;28;21128;-75
2022/09/05 12:48:02;;;;;;;2.70;1.42;;;;;;;23.96;45.33;101887.66;5068869;28;20052;-74
2022/09/05 12:53:09;;;;;;;3.45;1.40;;;;;;;23.99;45.59;101889.34;5069868;28;21185;-75
2022/09/05 12:58:31;;;;;;;1.67;1.40;;;;;;;24.01;45.19;101890.19;5069270;28;20983;-76
2022/09/05 13:01:14;;;;;;;2.40;1.35;;;;;;;24.03;44.92;101891.00;5051374;28;20044;-75
2022/09/05 13:03:52;;;;;;;1.77;1.40;;;;;;;24.02;44.56;101890.16;5052513;28;20494;-75
2022/09/05 13:06:37;;;;;;;1.80;1.15;;;;;;;24.03;44.23;101896.28;5069414;28;20056;-75
2022/09/05 13:09:22;;;;;;;2.17;1.38;;;;;;;24.05;44.48;101891.00;5067894;28;21156;-75
2022/09/05 13:12:02;;;;;;;1.77;1.30;;;;;;;24.05;44.47;101883.09;5067450;28;20058;-75
2022/09/05 13:14:41;;;;;;;3.17;1.10;;;;;;;24.06;44.70;101890.06;5069828;28;20497;-75
2022/09/05 13:17:07;;;;;;;1.48;1.20;;;;;;;24.06;45.00;101882.19;5068008;28;21155;-76
2022/09/05 13:19:42;;;;;;;1.25;1.00;;;;;;;24.06;44.84;101884.81;5068157;28;20040;-75
2022/09/05 13:22:05;;;;;;;2.60;1.15;;;;;;;24.07;44.34;101881.31;5067643;28;20056;-75
2022/09/05 13:24:37;;;;;;;2.08;1.27;;;;;;;24.08;44.59;101876.00;5051830;28;20123;-74
2022/09/05 13:27:22;;;;;;;2.97;1.40;;;;;;;24.10;44.61;101875.97;5049659;28;20083;-75
2022/09/05 13:29:54;;;;;;;2.42;1.30;;;;;;;24.09;44.69;101869.84;5067649;28;20291;-74
2022/09/05 13:32:29;;;;;;;3.17;1.23;;;;;;;24.11;44.81;101869.84;5051475;28;20049;-75
2022/09/05 13:35:03;;;;;;;1.40;1.10;;;;;;;24.11;44.93;101870.69;5065703;28;20584;-75
2022/09/05 13:37:35;;;;;;;4.72;1.40;;;;;;;24.12;45.22;101876.81;5069801;28;20056;-75
2022/09/05 13:40:08;;;;;;;1.48;1.08;;;;;;;24.13;45.08;101868.91;5067011;28;20061;-74
2022/09/05 13:45:07;;;;;;;3.33;1.20;;;;;;;24.14;45.08;101865.34;5066835;28;20053;-75
2022/09/05 13:50:21;;;;;;;2.05;1.10;;;;;;;24.16;44.92;101862.69;5065256;28;20058;-75
2022/09/05 13:53:26;;;;;;;3.58;1.20;;;;;;;24.18;44.89;101871.44;5067337;28;20056;-74
2022/09/05 13:55:54;;;;;;;1.88;1.20;;;;;;;24.19;44.52;101857.38;5065312;28;20135;-74
2022/09/05 13:58:38;;;;;;;3.22;1.30;;;;;;;24.21;44.61;101858.19;5050985;28;20040;-75
2022/09/05 14:01:28;;;;;;;2.55;1.30;;;;;;;24.20;44.67;101867.88;5059004;28;20064;-75
2022/09/05 14:04:21;;;;;;;1.63;1.10;;;;;;;24.20;44.85;101862.59;5065758;28;20039;-74
2022/09/05 14:07:10;;;;;;;1.67;1.15;;;;;;;24.21;44.90;101866.09;5067385;28;20159;-76
2022/09/05 14:12:33;;;;;;;1.55;1.30;;;;;;;24.21;44.81;101853.84;5038841;28;20087;-75
2022/09/05 14:15:10;;;;;;;1.92;1.30;;;;;;;24.21;45.17;101856.47;4984393;28;1243679;-75
2022/09/05 14:23:06;;;;;;;1.80;1.30;;;;;;;24.20;45.02;101849.44;5066924;28;20063;-75
2022/09/05 14:28:11;;;;;;;1.67;1.20;;;;;;;24.20;45.16;101852.09;5063353;28;20049;-75
2022/09/05 14:30:39;;;;;;;2.05;1.35;;;;;;;24.21;45.51;101852.94;5056430;28;20299;-75
2022/09/05 14:33:29;;;;;;;1.55;1.15;;;;;;;24.20;45.36;101846.81;5040799;28;20062;-75
2022/09/05 14:36:21;;;;;;;1.30;1.13;;;;;;;24.21;45.30;101851.19;5058478;28;20061;-75
2022/09/05 14:38:54;;;;;;;1.73;1.17;;;;;;;24.20;45.59;101846.81;5039859;28;20495;-75
2022/09/05 14:41:37;;;;;;;;;;;;;;;24.20;45.38;101846.81;5042200;28;20051;-75
2022/09/05 14:44:37;;;;;;;1.90;1.30;;;;;;;24.20;45.39;101848.59;5065545;28;19981;-75
2022/09/05 14:47:09;;;;;;;2.50;1.30;;;;;;;24.20;45.36;101848.59;5072117;28;20079;-75
2022/09/05 14:49:39;;;;;;;2.37;1.23;;;;;;;24.19;45.34;101836.31;5074330;28;20490;-75
2022/09/05 14:52:23;;;;;;;1.77;1.30;;;;;;;24.19;45.42;101841.59;5064629;28;20048;-75
2022/09/05 14:54:55;;;;;;;2.05;1.20;;;;;;;24.19;45.53;101845.09;5071975;28;20044;-75
2022/09/05 14:57:25;;;;;;;1.73;1.10;;;;;;;24.18;45.59;101839.88;5078546;28;20041;-75
2022/09/05 14:59:54;;;;;;;1.80;1.17;;;;;;;24.18;45.74;101840.72;5069769;28;20139;-75
2022/09/05 15:02:32;;;;;;;1.85;1.23;;;;;;;24.18;45.78;101845.13;5072472;28;20083;-75
2022/09/05 15:05:17;;;;;;;1.50;1.10;;;;;;;24.18;45.71;101835.47;5069898;28;20040;-75
2022/09/05 15:07:58;;;;;;;1.63;1.10;;;;;;;24.18;45.71;101837.25;5070163;28;20053;-75
2022/09/05 15:10:32;;;;;;;1.50;0.95;;;;;;;24.20;45.87;101838.06;5073449;28;20504;-75
2022/09/05 15:13:15;;;;;;;1.70;1.20;;;;;;;24.18;45.71;101832.84;5071164;28;20060;-75
2022/09/05 15:15:55;;;;;;;5.47;1.30;;;;;;;24.20;45.93;101838.06;5071462;28;20058;-75
2022/09/05 15:18:29;;;;;;;1.55;1.13;;;;;;;24.19;46.08;101842.47;5070698;28;20118;-76
2022/09/05 15:21:15;;;;;;;2.33;1.55;;;;;;;24.19;45.65;101842.47;5061322;28;20446;-75
2022/09/05 15:23:41;;;;;;;2.45;1.30;;;;;;;24.19;45.79;101833.69;5070796;28;20045;-75
2022/09/05 15:26:19;;;;;;;2.50;1.52;;;;;;;24.19;45.90;101833.69;5069070;28;20491;-75
2022/09/05 15:28:50;;;;;;;2.45;1.48;;;;;;;24.19;45.99;101828.44;5060525;28;20411;-75
2022/09/05 15:31:18;;;;;;;3.55;1.15;;;;;;;24.19;45.89;101833.69;5064451;28;20052;-75
2022/09/05 15:33:56;;;;;;;2.50;1.48;;;;;;;24.16;45.68;101829.38;5075917;28;20127;-75
2022/09/05 15:36:39;;;;;;;1.40;1.13;;;;;;;24.19;45.96;101831.06;5050793;28;20101;-75
2022/09/05 15:39:27;;;;;;;1.40;1.13;;;;;;;24.17;45.61;101825.88;5077259;28;20145;-75
2022/09/05 15:42:11;;;;;;;2.45;1.35;;;;;;;24.23;45.66;101816.94;5069492;28;20056;-75